createdAt,value
2022-12-18T00:00:06.304Z,26.80
2022-12-18T00:01:06.280Z,28.10
2022-12-18T00:02:06.299Z,28.40
2022-12-18T00:03:06.331Z,27.80
2022-12-18T00:04:06.538Z,29.50
2022-12-18T00:05:06.239Z,27.30
2022-12-18T00:06:06.215Z,25.80
2022-12-18T00:07:06.204Z,27.20
2022-12-18T00:08:09.284Z,27.40
2022-12-18T00:09:06.198Z,27.00
2022-12-18T00:10:06.206Z,27.80
2022-12-18T00:11:07.072Z,27.00
2022-12-18T00:13:09.964Z,26.70
2022-12-18T00:14:06.130Z,26.60
2022-12-18T00:15:06.168Z,25.90
2022-12-18T00:16:06.228Z,27.40
2022-12-18T00:17:06.086Z,27.20
2022-12-18T00:18:06.130Z,27.40
2022-12-18T00:19:06.085Z,27.00
2022-12-18T00:20:06.120Z,26.70
2022-12-18T00:21:06.061Z,25.20
2022-12-18T00:22:06.044Z,26.80
2022-12-18T00:23:06.026Z,25.90
2022-12-18T00:24:06.018Z,26.70
2022-12-18T00:25:06.091Z,25.20
2022-12-18T00:26:06.001Z,26.70
2022-12-18T00:27:06.007Z,27.00
2022-12-18T00:28:05.984Z,25.60
2022-12-18T00:29:05.954Z,24.90
2022-12-18T00:30:06.017Z,24.90
2022-12-18T00:31:05.986Z,25.00
2022-12-18T00:32:06.005Z,24.50
2022-12-18T00:33:05.931Z,24.80
2022-12-18T00:34:05.942Z,24.30
2022-12-18T00:35:05.887Z,25.50
2022-12-18T00:36:05.947Z,26.10
2022-12-18T00:37:05.933Z,25.40
2022-12-18T00:38:05.897Z,26.30
2022-12-18T00:39:05.897Z,26.40
2022-12-18T00:40:05.840Z,25.20
2022-12-18T00:41:05.830Z,25.70
2022-12-18T00:42:05.861Z,26.60
2022-12-18T00:43:05.801Z,25.70
2022-12-18T00:44:05.799Z,25.50
2022-12-18T00:45:10.791Z,24.40
2022-12-18T00:46:06.859Z,22.90
2022-12-18T00:47:05.779Z,23.20
2022-12-18T00:48:05.764Z,23.70
2022-12-18T00:49:05.754Z,24.90
2022-12-18T00:50:05.742Z,25.00
2022-12-18T00:51:05.725Z,24.40
2022-12-18T00:52:05.773Z,22.40
2022-12-18T00:53:05.714Z,24.10
2022-12-18T00:54:05.709Z,24.20
2022-12-18T00:55:06.588Z,28.00
2022-12-18T00:56:05.669Z,28.60
2022-12-18T00:57:05.679Z,28.00
2022-12-18T00:58:05.654Z,29.40
2022-12-18T00:59:05.671Z,27.20
2022-12-18T01:00:05.637Z,28.10
2022-12-18T01:01:05.733Z,29.30
2022-12-18T01:02:05.776Z,28.80
2022-12-18T01:03:05.650Z,28.60
2022-12-18T01:04:05.603Z,29.70
2022-12-18T01:05:05.583Z,29.30
2022-12-18T01:06:05.581Z,27.80
2022-12-18T01:07:05.551Z,28.90
2022-12-18T01:08:05.561Z,27.80
2022-12-18T01:09:05.560Z,27.80
2022-12-18T01:10:05.537Z,27.10
2022-12-18T01:11:05.535Z,27.80
2022-12-18T01:12:05.520Z,28.10
2022-12-18T01:13:05.511Z,28.70
2022-12-18T01:14:05.508Z,28.10
2022-12-18T01:15:05.463Z,29.00
2022-12-18T01:16:05.487Z,30.20
2022-12-18T01:17:05.484Z,30.90
2022-12-18T01:18:05.482Z,29.90
2022-12-18T01:19:05.424Z,28.50
2022-12-18T01:20:05.424Z,29.60
2022-12-18T01:21:05.431Z,29.00
2022-12-18T01:22:05.430Z,30.10
2022-12-18T01:23:05.405Z,28.50
2022-12-18T01:24:05.404Z,28.00
2022-12-18T01:25:05.408Z,28.60
2022-12-18T01:26:05.342Z,27.90
2022-12-18T01:27:05.352Z,27.40
2022-12-18T01:28:05.344Z,27.00
2022-12-18T01:29:05.335Z,26.80
2022-12-18T01:30:05.302Z,24.70
2022-12-18T01:31:05.293Z,25.50
2022-12-18T01:32:05.353Z,24.70
2022-12-18T01:33:05.262Z,22.60
2022-12-18T01:34:05.286Z,22.80
2022-12-18T01:35:05.251Z,22.00
2022-12-18T01:36:05.245Z,20.80
2022-12-18T01:37:05.243Z,22.20
2022-12-18T01:38:05.255Z,23.20
2022-12-18T01:39:05.249Z,23.00
2022-12-18T01:40:05.205Z,22.20
2022-12-18T01:41:05.196Z,22.60
2022-12-18T01:42:05.197Z,22.10
2022-12-18T01:43:05.203Z,22.70
2022-12-18T01:44:05.228Z,22.90
2022-12-18T01:45:05.134Z,22.40
2022-12-18T01:46:05.168Z,22.50
2022-12-18T01:47:05.136Z,21.50
2022-12-18T01:48:05.137Z,20.70
2022-12-18T01:49:05.155Z,21.30
2022-12-18T01:50:05.122Z,21.50
2022-12-18T01:51:05.083Z,21.00
2022-12-18T01:52:05.080Z,20.80
2022-12-18T01:53:05.065Z,20.80
2022-12-18T01:54:05.078Z,21.80
2022-12-18T01:55:05.049Z,21.00
2022-12-18T01:56:05.054Z,21.00
2022-12-18T01:57:05.068Z,21.40
2022-12-18T01:58:05.009Z,22.00
2022-12-18T01:59:04.997Z,20.70
2022-12-18T02:00:05.004Z,20.60
2022-12-18T02:01:05.018Z,21.10
2022-12-18T02:02:05.102Z,20.70
2022-12-18T02:03:05.031Z,20.40
2022-12-18T02:04:04.936Z,21.10
2022-12-18T02:05:04.969Z,20.40
2022-12-18T02:06:04.916Z,20.60
2022-12-18T02:07:04.908Z,20.10
2022-12-18T02:08:04.926Z,20.20
2022-12-18T02:09:04.923Z,20.10
2022-12-18T02:10:04.894Z,20.40
2022-12-18T02:11:04.856Z,19.40
2022-12-18T02:12:04.845Z,19.80
2022-12-18T02:13:04.856Z,20.20
2022-12-18T02:14:04.878Z,18.80
2022-12-18T02:15:04.865Z,20.40
2022-12-18T02:16:04.826Z,20.20
2022-12-18T02:17:04.864Z,20.40
2022-12-18T02:18:04.801Z,21.50
2022-12-18T02:19:04.801Z,20.90
2022-12-18T02:20:04.817Z,20.60
2022-12-18T02:21:04.760Z,20.20
2022-12-18T02:22:04.770Z,21.30
2022-12-18T02:23:04.771Z,21.50
2022-12-18T02:24:04.740Z,20.70
2022-12-18T02:25:04.780Z,20.60
2022-12-18T02:26:04.718Z,20.40
2022-12-18T02:27:04.700Z,19.60
2022-12-18T02:28:04.722Z,20.00
2022-12-18T02:29:04.678Z,19.00
2022-12-18T02:30:04.671Z,21.30
2022-12-18T02:31:04.758Z,20.80
2022-12-18T02:32:04.658Z,20.10
2022-12-18T02:33:04.628Z,19.20
2022-12-18T02:34:04.651Z,18.30
2022-12-18T02:35:04.620Z,20.10
2022-12-18T02:36:04.587Z,21.30
2022-12-18T02:37:04.595Z,20.70
2022-12-18T02:38:04.589Z,20.70
2022-12-18T02:39:04.632Z,19.20
2022-12-18T02:40:04.582Z,19.50
2022-12-18T02:41:04.549Z,19.20
2022-12-18T02:42:04.548Z,19.60
2022-12-18T02:43:04.544Z,19.40
2022-12-18T02:44:04.524Z,19.20
2022-12-18T02:45:04.526Z,19.70
2022-12-18T02:46:04.582Z,18.90
2022-12-18T02:47:04.532Z,19.50
2022-12-18T02:48:04.483Z,18.30
2022-12-18T02:49:04.468Z,19.30
2022-12-18T02:50:04.482Z,20.10
2022-12-18T02:51:04.439Z,19.60
2022-12-18T02:52:04.452Z,19.30
2022-12-18T02:53:04.461Z,20.00
2022-12-18T02:54:04.400Z,21.20
2022-12-18T02:55:04.403Z,18.80
2022-12-18T02:56:04.398Z,21.30
2022-12-18T02:57:04.461Z,19.80
2022-12-18T02:58:04.405Z,20.20
2022-12-18T02:59:04.394Z,19.00
2022-12-18T03:00:04.363Z,19.30
2022-12-18T03:01:04.403Z,19.50
2022-12-18T03:02:04.525Z,19.60
2022-12-18T03:03:04.379Z,19.40
2022-12-18T03:04:04.321Z,19.50
2022-12-18T03:05:04.280Z,19.20
2022-12-18T03:06:04.296Z,18.60
2022-12-18T03:07:04.300Z,19.20
2022-12-18T03:08:04.261Z,18.70
2022-12-18T03:09:04.283Z,19.10
2022-12-18T03:10:04.254Z,19.80
2022-12-18T03:11:04.234Z,19.20
2022-12-18T03:12:04.239Z,20.00
2022-12-18T03:13:04.215Z,20.00
2022-12-18T03:14:04.234Z,18.60
2022-12-18T03:15:04.191Z,19.10
2022-12-18T03:16:04.204Z,18.70
2022-12-18T03:17:04.212Z,19.10
2022-12-18T03:18:04.173Z,19.70
2022-12-18T03:19:04.199Z,19.60
2022-12-18T03:20:04.134Z,19.50
2022-12-18T03:21:04.121Z,19.60
2022-12-18T03:22:04.124Z,18.60
2022-12-18T03:23:04.173Z,18.00
2022-12-18T03:24:04.116Z,18.50
2022-12-18T03:25:04.078Z,19.90
2022-12-18T03:26:07.401Z,20.60
2022-12-18T03:27:04.066Z,20.50
2022-12-18T03:28:04.088Z,20.40
2022-12-18T03:29:04.045Z,21.40
2022-12-18T03:30:04.033Z,20.00
2022-12-18T03:31:04.103Z,19.70
2022-12-18T03:32:04.025Z,19.30
2022-12-18T03:33:04.008Z,17.80
2022-12-18T03:34:04.045Z,19.00
2022-12-18T03:35:04.003Z,18.60
2022-12-18T03:36:03.953Z,20.30
2022-12-18T03:37:03.944Z,20.00
2022-12-18T03:38:03.946Z,19.00
2022-12-18T03:39:03.943Z,20.30
2022-12-18T03:40:03.953Z,18.70
2022-12-18T03:41:03.904Z,20.20
2022-12-18T03:42:03.893Z,19.30
2022-12-18T03:43:03.885Z,19.20
2022-12-18T03:44:03.900Z,18.70
2022-12-18T03:45:03.896Z,18.30
2022-12-18T03:46:03.960Z,18.60
2022-12-18T03:47:03.867Z,18.50
2022-12-18T03:48:03.878Z,20.30
2022-12-18T03:49:03.818Z,23.00
2022-12-18T03:50:08.311Z,21.80
2022-12-18T03:51:04.848Z,20.50
2022-12-18T03:52:03.800Z,20.10
2022-12-18T03:53:03.820Z,19.10
2022-12-18T03:54:03.789Z,20.20
2022-12-18T03:55:03.755Z,20.00
2022-12-18T03:56:03.769Z,19.10
2022-12-18T03:57:03.756Z,18.50
2022-12-18T03:58:03.742Z,19.60
2022-12-18T03:59:03.760Z,19.60
2022-12-18T04:00:03.707Z,20.20
2022-12-18T04:01:03.727Z,20.50
2022-12-18T04:02:03.894Z,20.50
2022-12-18T04:03:03.732Z,17.50
2022-12-18T04:04:03.776Z,17.10
2022-12-18T04:05:03.650Z,17.90
2022-12-18T04:06:03.660Z,18.30
2022-12-18T04:07:03.662Z,18.20
2022-12-18T04:08:03.656Z,19.40
2022-12-18T04:09:03.639Z,18.70
2022-12-18T04:10:03.772Z,18.30
2022-12-18T04:11:03.597Z,19.00
2022-12-18T04:12:03.576Z,17.80
2022-12-18T04:13:03.620Z,19.00
2022-12-18T04:14:07.018Z,17.70
2022-12-18T04:15:03.561Z,17.60
2022-12-18T04:16:03.599Z,16.40
2022-12-18T04:17:03.541Z,17.00
2022-12-18T04:18:03.516Z,17.20
2022-12-18T04:19:03.602Z,16.70
2022-12-18T04:20:03.511Z,17.00
2022-12-18T04:21:03.510Z,16.90
2022-12-18T04:22:03.510Z,16.80
2022-12-18T04:23:03.467Z,17.30
2022-12-18T04:24:03.510Z,16.10
2022-12-18T04:25:03.437Z,17.20
2022-12-18T04:26:03.438Z,16.90
2022-12-18T04:27:03.431Z,17.30
2022-12-18T04:28:03.451Z,16.70
2022-12-18T04:29:03.450Z,17.00
2022-12-18T04:30:03.412Z,16.80
2022-12-18T04:31:03.493Z,16.30
2022-12-18T04:32:03.359Z,17.20
2022-12-18T04:33:03.384Z,17.10
2022-12-18T04:34:03.371Z,15.40
2022-12-18T04:35:03.389Z,17.60
2022-12-18T04:36:03.340Z,15.80
2022-12-18T04:37:03.365Z,16.80
2022-12-18T04:38:03.312Z,17.40
2022-12-18T04:39:03.311Z,16.70
2022-12-18T04:40:03.341Z,17.50
2022-12-18T04:41:03.285Z,16.90
2022-12-18T04:42:03.263Z,17.20
2022-12-18T04:43:03.363Z,17.90
2022-12-18T04:44:03.240Z,17.50
2022-12-18T04:45:03.240Z,16.70
2022-12-18T04:46:03.282Z,15.40
2022-12-18T04:47:03.209Z,16.30
2022-12-18T04:48:03.213Z,16.00
2022-12-18T04:49:03.217Z,15.80
2022-12-18T04:50:03.194Z,16.60
2022-12-18T04:51:03.190Z,15.40
2022-12-18T04:52:03.159Z,15.90
2022-12-18T04:53:03.171Z,16.20
2022-12-18T04:54:03.237Z,16.30
2022-12-18T04:55:03.144Z,15.90
2022-12-18T04:56:03.154Z,16.00
2022-12-18T04:57:03.124Z,16.50
2022-12-18T04:58:03.094Z,16.40
2022-12-18T04:59:03.081Z,16.10
2022-12-18T05:00:03.111Z,16.10
2022-12-18T05:01:03.095Z,16.50
2022-12-18T05:02:03.173Z,15.90
2022-12-18T05:03:03.143Z,14.70
2022-12-18T05:04:03.066Z,16.60
2022-12-18T05:05:03.021Z,16.90
2022-12-18T05:06:03.071Z,16.40
2022-12-18T05:07:03.034Z,15.50
2022-12-18T05:08:02.982Z,16.10
2022-12-18T05:09:02.991Z,17.20
2022-12-18T05:10:03.005Z,17.20
2022-12-18T05:11:02.961Z,16.50
2022-12-18T05:12:02.972Z,16.80
2022-12-18T05:13:02.977Z,16.20
2022-12-18T05:14:02.931Z,16.30
2022-12-18T05:15:02.953Z,16.30
2022-12-18T05:16:02.973Z,16.70
2022-12-18T05:17:02.929Z,16.40
2022-12-18T05:18:02.904Z,19.20
2022-12-18T05:19:02.874Z,18.20
2022-12-18T05:20:02.876Z,18.40
2022-12-18T05:21:02.895Z,17.60
2022-12-18T05:22:02.865Z,16.20
2022-12-18T05:23:02.864Z,17.20
2022-12-18T05:24:02.846Z,17.60
2022-12-18T05:25:02.863Z,16.00
2022-12-18T05:26:02.819Z,16.50
2022-12-18T05:27:02.807Z,16.30
2022-12-18T05:28:02.773Z,15.90
2022-12-18T05:29:02.798Z,16.60
2022-12-18T05:30:02.767Z,16.40
2022-12-18T05:31:02.774Z,15.90
2022-12-18T05:32:02.767Z,15.90
2022-12-18T05:33:02.725Z,15.90
2022-12-18T05:34:02.755Z,15.30
2022-12-18T05:35:02.715Z,16.60
2022-12-18T05:36:02.716Z,16.20
2022-12-18T05:37:02.693Z,14.80
2022-12-18T05:38:02.679Z,15.90
2022-12-18T05:39:02.673Z,15.00
2022-12-18T05:40:02.687Z,15.50
2022-12-18T05:41:02.657Z,15.70
2022-12-18T05:42:02.645Z,15.90
2022-12-18T05:43:02.625Z,16.40
2022-12-18T05:44:02.618Z,16.70
2022-12-18T05:45:02.606Z,16.30
2022-12-18T05:46:02.594Z,15.20
2022-12-18T05:47:02.660Z,16.10
2022-12-18T05:48:02.590Z,15.70
2022-12-18T05:49:02.554Z,15.90
2022-12-18T05:50:02.564Z,16.00
2022-12-18T05:51:02.586Z,16.10
2022-12-18T05:52:02.528Z,16.30
2022-12-18T05:53:02.495Z,16.80
2022-12-18T05:54:02.502Z,15.50
2022-12-18T05:55:02.505Z,15.20
2022-12-18T05:56:02.489Z,15.40
2022-12-18T05:57:02.478Z,15.40
2022-12-18T05:58:02.469Z,15.90
2022-12-18T05:59:02.461Z,14.70
2022-12-18T06:00:02.468Z,15.60
2022-12-18T06:01:02.415Z,15.70
2022-12-18T06:02:02.531Z,16.50
2022-12-18T06:03:02.500Z,15.70
2022-12-18T06:04:02.494Z,14.90
2022-12-18T06:05:02.390Z,15.20
2022-12-18T06:06:02.381Z,15.10
2022-12-18T06:07:02.387Z,15.10
2022-12-18T06:08:02.337Z,15.30
2022-12-18T06:09:02.351Z,15.30
2022-12-18T06:10:02.369Z,16.20
2022-12-18T06:11:02.325Z,14.50
2022-12-18T06:12:02.311Z,15.70
2022-12-18T06:13:02.307Z,14.80
2022-12-18T06:14:02.276Z,15.10
2022-12-18T06:15:02.275Z,15.00
2022-12-18T06:16:02.300Z,15.60
2022-12-18T06:17:02.288Z,14.70
2022-12-18T06:18:02.260Z,16.00
2022-12-18T06:19:02.231Z,15.80
2022-12-18T06:20:02.229Z,16.20
2022-12-18T06:21:02.197Z,16.60
2022-12-18T06:22:02.202Z,16.00
2022-12-18T06:23:02.207Z,16.10
2022-12-18T06:24:02.208Z,16.30
2022-12-18T06:25:02.168Z,15.80
2022-12-18T06:26:02.146Z,15.90
2022-12-18T06:27:02.169Z,15.20
2022-12-18T06:28:02.158Z,15.40
2022-12-18T06:29:02.137Z,14.70
2022-12-18T06:30:02.132Z,15.60
2022-12-18T06:31:02.152Z,15.20
2022-12-18T06:32:02.172Z,15.30
2022-12-18T06:33:02.098Z,15.00
2022-12-18T06:34:02.078Z,14.70
2022-12-18T06:35:02.060Z,14.40
2022-12-18T06:36:02.068Z,15.40
2022-12-18T06:37:02.073Z,14.20
2022-12-18T06:38:02.048Z,16.10
2022-12-18T06:39:02.063Z,16.20
2022-12-18T06:40:02.029Z,14.90
2022-12-18T06:41:02.020Z,15.00
2022-12-18T06:42:02.007Z,16.00
2022-12-18T06:43:02.007Z,15.80
2022-12-18T06:44:01.996Z,15.60
2022-12-18T06:45:01.960Z,16.40
2022-12-18T06:46:02.047Z,16.00
2022-12-18T06:47:01.959Z,17.50
2022-12-18T06:48:01.954Z,18.20
2022-12-18T06:49:02.046Z,18.30
2022-12-18T06:50:01.910Z,19.80
2022-12-18T06:51:01.931Z,19.60
2022-12-18T06:52:01.903Z,19.20
2022-12-18T06:53:01.887Z,20.10
2022-12-18T06:54:01.883Z,20.30
2022-12-18T06:55:01.855Z,24.20
2022-12-18T06:56:06.386Z,24.60
2022-12-18T06:57:02.862Z,21.90
2022-12-18T06:58:01.818Z,20.70
2022-12-18T06:59:01.799Z,21.50
2022-12-18T07:00:01.903Z,19.60
2022-12-18T07:01:01.831Z,18.40
2022-12-18T07:02:01.880Z,18.10
2022-12-18T07:03:01.820Z,17.10
2022-12-18T07:04:01.764Z,17.50
2022-12-18T07:05:06.084Z,15.90
2022-12-18T07:06:02.745Z,16.80
2022-12-18T07:07:01.745Z,16.30
2022-12-18T07:08:01.819Z,14.70
2022-12-18T07:09:01.717Z,15.50
2022-12-18T07:10:01.705Z,15.90
2022-12-18T07:11:01.733Z,15.50
2022-12-18T07:12:01.701Z,15.50
2022-12-18T07:13:01.683Z,15.50
2022-12-18T07:14:01.654Z,15.00
2022-12-18T07:15:01.643Z,14.50
2022-12-18T07:16:01.667Z,15.50
2022-12-18T07:17:01.675Z,15.60
2022-12-18T07:18:01.610Z,15.10
2022-12-18T07:19:01.581Z,14.70
2022-12-18T07:20:01.572Z,15.10
2022-12-18T07:21:01.583Z,15.30
2022-12-18T07:22:01.624Z,16.50
2022-12-18T07:23:01.542Z,14.90
2022-12-18T07:24:01.531Z,15.80
2022-12-18T07:25:01.537Z,16.10
2022-12-18T07:26:01.527Z,17.20
2022-12-18T07:27:01.561Z,17.60
2022-12-18T07:28:01.512Z,18.00
2022-12-18T07:29:01.481Z,17.70
2022-12-18T07:30:01.493Z,17.30
2022-12-18T07:31:01.483Z,17.60
2022-12-18T07:32:01.597Z,16.30
2022-12-18T07:33:01.443Z,16.40
2022-12-18T07:34:01.434Z,16.40
2022-12-18T07:35:01.425Z,16.80
2022-12-18T07:36:01.425Z,16.60
2022-12-18T07:37:01.462Z,16.20
2022-12-18T07:38:01.373Z,18.30
2022-12-18T07:39:01.383Z,19.00
2022-12-18T07:40:01.374Z,20.20
2022-12-18T07:41:01.365Z,20.70
2022-12-18T07:42:01.391Z,22.20
2022-12-18T07:43:01.367Z,20.00
2022-12-18T07:44:01.327Z,18.60
2022-12-18T07:45:01.329Z,19.50
2022-12-18T07:46:01.353Z,17.60
2022-12-18T07:47:01.299Z,17.00
2022-12-18T07:48:01.333Z,17.00
2022-12-18T07:49:01.265Z,17.90
2022-12-18T07:50:01.291Z,20.00
2022-12-18T07:51:01.280Z,18.80
2022-12-18T07:52:01.254Z,16.40
2022-12-18T07:53:01.234Z,16.60
2022-12-18T07:54:01.282Z,16.20
2022-12-18T07:55:01.215Z,16.70
2022-12-18T07:56:26.048Z,15.70
2022-12-18T07:57:02.222Z,16.70
2022-12-18T07:58:01.503Z,16.10
2022-12-18T07:59:02.149Z,15.80
2022-12-18T08:00:01.187Z,15.40
2022-12-18T08:01:01.220Z,14.70
2022-12-18T08:02:02.000Z,15.20
2022-12-18T08:03:01.268Z,15.80
2022-12-18T08:04:01.457Z,15.60
2022-12-18T08:05:01.105Z,16.40
2022-12-18T08:06:01.226Z,16.60
2022-12-18T08:07:01.315Z,16.80
2022-12-18T08:08:01.087Z,18.80
2022-12-18T08:09:01.108Z,19.90
2022-12-18T08:10:01.046Z,19.60
2022-12-18T08:11:04.649Z,23.20
2022-12-18T08:12:01.109Z,23.90
2022-12-18T08:13:05.103Z,23.90
2022-12-18T08:14:04.614Z,23.80
2022-12-18T08:15:01.241Z,21.50
2022-12-18T08:16:00.994Z,21.40
2022-12-18T08:17:01.048Z,20.30
2022-12-18T08:18:01.036Z,19.10
2022-12-18T08:19:02.069Z,19.40
2022-12-18T08:20:01.014Z,16.50
2022-12-18T08:21:00.949Z,16.40
2022-12-18T08:22:00.917Z,18.80
2022-12-18T08:23:00.960Z,19.10
2022-12-18T08:24:00.938Z,19.50
2022-12-18T08:25:00.928Z,17.90
2022-12-18T08:26:00.927Z,18.70
2022-12-18T08:28:01.881Z,18.40
2022-12-18T08:29:04.494Z,19.60
2022-12-18T08:30:00.863Z,18.90
2022-12-18T08:31:00.910Z,20.00
2022-12-18T08:32:00.951Z,19.50
2022-12-18T08:33:00.859Z,19.00
2022-12-18T08:34:00.844Z,21.70
2022-12-18T08:35:00.951Z,23.10
2022-12-18T08:36:00.790Z,21.00
2022-12-18T08:37:00.851Z,22.10
2022-12-18T08:38:01.064Z,23.50
2022-12-18T08:39:00.829Z,33.80
2022-12-18T08:40:01.472Z,34.50
2022-12-18T08:41:00.728Z,25.10
2022-12-18T08:42:05.407Z,20.50
2022-12-18T08:43:02.001Z,23.10
2022-12-18T08:44:00.744Z,25.90
2022-12-18T08:45:00.988Z,23.60
2022-12-18T08:46:01.720Z,22.60
2022-12-18T08:47:00.719Z,23.50
2022-12-18T08:48:00.672Z,18.10
2022-12-18T08:49:00.642Z,19.60
2022-12-18T08:50:02.194Z,18.90
2022-12-18T08:51:00.680Z,18.80
2022-12-18T08:52:00.599Z,18.60
2022-12-18T08:53:00.867Z,18.90
2022-12-18T08:55:50.305Z,16.20
2022-12-18T08:57:29.938Z,19.50
2022-12-18T08:58:23.257Z,20.10
2022-12-18T09:01:04.759Z,19.90
2022-12-18T09:01:57.038Z,19.80
2022-12-18T09:04:09.551Z,21.80
2022-12-18T09:04:52.379Z,22.60
2022-12-18T09:06:17.549Z,22.80
2022-12-18T09:06:47.213Z,22.80
2022-12-18T09:08:09.157Z,21.50
2022-12-18T09:08:43.464Z,20.10
2022-12-18T09:09:51.671Z,22.50
2022-12-18T09:11:21.425Z,22.80
2022-12-18T09:11:48.054Z,23.40
2022-12-18T09:12:44.857Z,25.10
2022-12-18T09:14:04.420Z,24.20
2022-12-18T09:14:48.012Z,23.70
2022-12-18T09:15:47.402Z,22.80
2022-12-18T09:16:47.464Z,22.90
2022-12-18T09:17:44.111Z,22.10
2022-12-18T09:18:43.637Z,19.90
2022-12-18T09:19:48.809Z,22.30
2022-12-18T09:20:55.371Z,21.50
2022-12-18T09:21:48.331Z,20.80
2022-12-18T09:22:54.921Z,20.50
2022-12-18T09:23:43.325Z,21.50
2022-12-18T09:24:48.333Z,21.60
2022-12-18T09:26:12.817Z,19.30
2022-12-18T09:26:57.426Z,19.90
2022-12-18T09:27:45.541Z,20.90
2022-12-18T09:29:04.262Z,20.40
2022-12-18T09:29:49.658Z,19.70
2022-12-18T09:30:48.241Z,19.70
2022-12-18T09:31:45.195Z,20.20
2022-12-18T09:32:44.132Z,19.20
2022-12-18T09:35:03.504Z,18.20
2022-12-18T09:36:26.194Z,20.70
2022-12-18T09:37:26.221Z,19.90
2022-12-18T09:38:07.314Z,20.20
2022-12-18T09:39:28.464Z,19.60
2022-12-18T09:40:08.544Z,18.40
2022-12-18T09:41:22.424Z,19.10
2022-12-18T09:41:58.275Z,18.60
2022-12-18T09:43:08.304Z,19.10
2022-12-18T09:43:55.082Z,19.60
2022-12-18T09:45:06.658Z,18.50
2022-12-18T09:46:07.631Z,18.00
2022-12-18T09:47:05.425Z,17.50
2022-12-18T09:47:54.071Z,18.40
2022-12-18T09:48:53.998Z,19.00
2022-12-18T09:49:55.978Z,17.80
2022-12-18T09:51:15.185Z,17.80
2022-12-18T09:52:01.620Z,20.20
2022-12-18T09:52:55.829Z,19.60
2022-12-18T09:53:57.842Z,19.80
2022-12-18T09:55:06.195Z,18.50
2022-12-18T09:55:59.703Z,19.50
2022-12-18T09:57:00.768Z,19.10
2022-12-18T09:57:59.741Z,19.00
2022-12-18T09:58:54.594Z,20.30
2022-12-18T09:59:58.538Z,19.60
2022-12-18T10:00:58.846Z,19.30
2022-12-18T10:02:08.924Z,18.10
2022-12-18T10:03:09.801Z,19.20
2022-12-18T10:03:54.188Z,19.50
2022-12-18T10:04:58.061Z,19.60
2022-12-18T10:06:00.816Z,19.60
2022-12-18T10:06:57.370Z,19.20
2022-12-18T10:08:04.691Z,18.70
2022-12-18T10:08:59.732Z,19.10
2022-12-18T10:09:55.670Z,17.90
2022-12-18T10:10:53.724Z,17.90
2022-12-18T10:11:55.734Z,19.10
2022-12-18T10:13:04.119Z,18.40
2022-12-18T10:14:15.898Z,18.30
2022-12-18T10:15:06.067Z,17.50
2022-12-18T10:16:05.989Z,18.50
2022-12-18T10:16:56.716Z,17.00
2022-12-18T10:17:53.881Z,17.40
2022-12-18T10:18:57.234Z,18.70
2022-12-18T10:19:53.880Z,17.90
2022-12-18T10:20:54.313Z,18.00
2022-12-18T10:21:58.736Z,19.20
2022-12-18T10:22:59.660Z,18.60
2022-12-18T10:24:06.253Z,19.20
2022-12-18T10:25:02.035Z,21.00
2022-12-18T10:25:53.816Z,18.90
2022-12-18T10:26:53.764Z,19.70
2022-12-18T10:27:53.525Z,19.10
2022-12-18T10:28:54.857Z,20.10
2022-12-18T10:29:53.761Z,19.00
2022-12-18T10:31:14.506Z,18.20
2022-12-18T10:31:53.515Z,17.70
2022-12-18T10:33:16.115Z,17.90
2022-12-18T10:33:53.705Z,18.50
2022-12-18T10:35:00.013Z,17.20
2022-12-18T10:37:26.203Z,17.70
2022-12-18T10:38:07.350Z,17.40
2022-12-18T10:39:05.322Z,17.10
2022-12-18T10:40:05.598Z,17.90
2022-12-18T10:41:04.997Z,16.90
2022-12-18T10:42:04.525Z,17.40
2022-12-18T10:43:07.742Z,18.10
2022-12-18T10:44:04.521Z,16.60
2022-12-18T10:45:07.973Z,16.50
2022-12-18T10:46:05.436Z,17.20
2022-12-18T10:47:10.116Z,16.10
2022-12-18T10:48:06.189Z,17.00
2022-12-18T10:49:05.693Z,16.50
2022-12-18T10:50:08.657Z,15.70
2022-12-18T10:51:12.267Z,16.90
2022-12-18T10:52:08.077Z,18.00
2022-12-18T10:53:04.444Z,16.80
2022-12-18T10:54:04.654Z,16.50
2022-12-18T10:55:07.381Z,17.00
2022-12-18T10:56:04.640Z,17.90
2022-12-18T10:57:05.111Z,16.40
2022-12-18T10:58:04.350Z,16.40
2022-12-18T10:59:05.862Z,16.20
2022-12-18T11:00:04.352Z,15.70
2022-12-18T11:01:09.062Z,15.20
2022-12-18T11:02:05.796Z,14.60
2022-12-18T11:03:06.199Z,14.50
2022-12-18T11:04:05.403Z,15.70
2022-12-18T11:05:04.512Z,15.00
2022-12-18T11:06:05.959Z,14.50
2022-12-18T11:07:05.312Z,14.10
2022-12-18T11:08:07.545Z,14.70
2022-12-18T11:09:12.229Z,13.70
2022-12-18T11:10:16.663Z,13.60
2022-12-18T11:11:13.349Z,13.90
2022-12-18T11:12:30.279Z,13.30
2022-12-18T11:13:10.327Z,14.10
2022-12-18T11:14:09.369Z,14.40
2022-12-18T11:15:07.984Z,13.40
2022-12-18T11:16:10.235Z,14.50
2022-12-18T11:17:25.328Z,13.70
2022-12-18T11:18:07.815Z,13.70
2022-12-18T11:19:05.711Z,14.80
2022-12-18T11:20:04.193Z,14.20
2022-12-18T11:21:16.615Z,14.60
2022-12-18T11:22:07.132Z,15.30
2022-12-18T11:23:05.294Z,15.50
2022-12-18T11:24:05.253Z,13.90
2022-12-18T11:25:31.870Z,18.90
2022-12-18T11:26:31.755Z,18.70
2022-12-18T11:27:05.272Z,15.90
2022-12-18T11:28:04.477Z,14.30
2022-12-18T11:29:05.980Z,13.90
2022-12-18T11:30:04.269Z,14.10
2022-12-18T11:31:29.048Z,14.20
2022-12-18T11:32:04.987Z,15.20
2022-12-18T11:33:04.934Z,14.80
2022-12-18T11:35:05.277Z,14.20
2022-12-18T11:36:10.604Z,13.90
2022-12-18T11:37:17.918Z,14.00
2022-12-18T11:38:04.194Z,15.20
2022-12-18T11:39:03.867Z,14.60
2022-12-18T11:40:07.623Z,14.40
2022-12-18T11:41:19.308Z,14.30
2022-12-18T11:42:08.739Z,14.10
2022-12-18T11:43:09.143Z,15.00
2022-12-18T11:44:17.991Z,14.90
2022-12-18T11:45:03.798Z,15.10
2022-12-18T11:46:24.883Z,15.90
2022-12-18T11:47:27.370Z,16.00
2022-12-18T11:48:04.385Z,16.60
2022-12-18T11:49:03.758Z,14.10
2022-12-18T11:50:03.764Z,14.50
2022-12-18T11:51:03.749Z,14.20
2022-12-18T11:52:16.201Z,15.60
2022-12-18T11:53:06.251Z,16.40
2022-12-18T11:54:15.257Z,16.60
2022-12-18T11:55:03.771Z,15.70
2022-12-18T11:56:04.093Z,14.70
2022-12-18T11:57:03.677Z,15.60
2022-12-18T11:58:04.651Z,15.10
2022-12-18T11:59:03.652Z,14.60
2022-12-18T12:00:03.657Z,14.00
2022-12-18T12:01:06.399Z,15.00
2022-12-18T12:02:03.782Z,15.50
2022-12-18T12:03:24.649Z,15.20
2022-12-18T12:04:24.907Z,15.30
2022-12-18T12:05:25.324Z,15.80
2022-12-18T12:06:03.765Z,15.70
2022-12-18T12:08:13.830Z,17.10
2022-12-18T12:09:15.300Z,17.60
2022-12-18T12:10:15.412Z,18.20
2022-12-18T12:11:13.700Z,17.50
2022-12-18T12:12:13.971Z,16.90
2022-12-18T12:13:14.680Z,16.60
2022-12-18T12:14:15.072Z,16.90
2022-12-18T12:15:13.689Z,16.70
2022-12-18T12:16:13.991Z,17.40
2022-12-18T12:17:13.639Z,16.70
2022-12-18T12:18:13.712Z,17.60
2022-12-18T12:19:13.863Z,18.90
2022-12-18T12:20:13.789Z,18.60
2022-12-18T12:21:15.404Z,22.10
2022-12-18T12:22:13.569Z,24.00
2022-12-18T12:23:13.604Z,25.00
2022-12-18T12:24:13.579Z,25.00
2022-12-18T12:25:13.603Z,23.30
2022-12-18T12:26:16.281Z,22.10
2022-12-18T12:27:17.440Z,22.80
2022-12-18T12:28:13.962Z,23.60
2022-12-18T12:29:19.397Z,22.90
2022-12-18T12:30:15.314Z,22.50
2022-12-18T12:31:17.354Z,22.30
2022-12-18T12:32:13.557Z,20.40
2022-12-18T12:33:13.515Z,20.00
2022-12-18T12:34:13.491Z,19.10
2022-12-18T12:35:13.538Z,20.00
2022-12-18T12:36:13.696Z,20.80
2022-12-18T12:37:13.479Z,19.30
2022-12-18T12:38:13.483Z,19.40
2022-12-18T12:39:13.418Z,20.20
2022-12-18T12:40:48.296Z,17.90
2022-12-18T12:41:14.657Z,17.40
2022-12-18T12:42:13.400Z,17.80
2022-12-18T12:43:14.125Z,18.60
2022-12-18T12:44:13.373Z,18.60
2022-12-18T12:45:13.317Z,17.70
2022-12-18T12:46:13.422Z,17.80
2022-12-18T12:47:13.369Z,17.50
2022-12-18T12:48:13.279Z,17.90
2022-12-18T12:49:13.256Z,18.20
2022-12-18T12:50:13.245Z,17.50
2022-12-18T12:51:13.197Z,17.20
2022-12-18T12:52:13.238Z,16.20
2022-12-18T12:53:13.189Z,17.00
2022-12-18T12:54:13.416Z,18.10
2022-12-18T12:55:14.824Z,17.60
2022-12-18T12:56:14.170Z,19.30
2022-12-18T12:57:13.156Z,18.00
2022-12-18T12:58:13.128Z,17.30
2022-12-18T12:59:13.145Z,17.40
2022-12-18T13:00:13.421Z,16.00
2022-12-18T13:01:17.214Z,16.40
2022-12-18T13:02:14.129Z,16.70
2022-12-18T13:03:13.111Z,16.00